Nevada City, CA

4:23 PM PST on March 02, 2015 (GMT -0800)
Blue Canyon-Nyack | Change Station
CLOSE
Current Station
Airport
Location: Blue Canyon,
Elevation: 5282 ft
Nearby Weather Stations

Elev 5282 ft 39.27 °N, 120.71 °W | Updated 31 minutes ago

Overcast
Overcast
35 °F
Feels Like 32 °F
N
4
Wind Variable Wind from South

Today
High -- | Low -- °F
--% Chance of Precip.
Yesterday
High -- | Low -- °F
Precip. -- in
6:35 AM 5:57 PM
Waxing Gibbous, 93% visible
Pressure 29.85 in
Visibility 10.0 miles
Clouds Scattered Clouds 300 ft
Mostly Cloudy 700 ft
Overcast 3000 ft
Windchill 32 °F
Dew Point 30 °F
Humidity 82%
Rainfall 0.14 in
Snow Depth Not available.
UV 1 out of 12
Pollen 8.00 out of 12
Air Quality Not available.
Flu Activity Not available.
METAR KBLU 022352Z AUTO 17003KT 10SM SCT003 BKN007 OVC030 02/M01 A2984 RMK AO2 SNE30 SLP106 P0000 60007 T00171011 10028 20000 52008

More Conditions Fewer Conditions

Pressure 29.85 in
Visibility 10.0 miles
Clouds Scattered Clouds 300 ft
Mostly Cloudy 700 ft
Overcast 3000 ft
Windchill 32 °F
Dew Point 30 °F
Humidity 82%
Rainfall 0.14 in
Snow Depth Not available.
UV 1 out of 12
Pollen 8.00 out of 12
Air Quality Not available.
Flu Activity Not available.
METAR KBLU 022352Z AUTO 17003KT 10SM SCT003 BKN007 OVC030 02/M01 A2984 RMK AO2 SNE30 SLP106 P0000 60007 T00171011 10028 20000 52008

More Conditions Fewer Conditions

10-Day Weather Forecast

Almanac

Astronomy

Mar. 02, 2015 Rise Set
Actual Time
Civil Twilight
Nautical Twilight
Astronomical Twilight
Moon
Length of Visible Light
Length of Day
Tomorrow will be .
, % of the Moon is Illuminated

Today's Extremes

State Highs State Lows

Community

WunderPhotos

Upload Photos

1,802,006 photos uploaded!

WunderBlogs® & News

Nearby

Air Quality

  Air Quality AQ Index Pollutant
Not available.

Snow Depth

Station Depth Elevation

Earthquake Activity

City Distance Mag. Time & Date
Minimum magnitude displayed is 2.5.

Coastal Water Temperatures

Place Temperature

Nearby Weather Stations